Mesquite, TX (75182)

4:17 AM CST on February 12, 2016 (GMT -0600)
Mesquite, TX - Municipal Center | | Change Station
CLOSE
Current Station
Personal Weather Station
Location: Mesquite, TX
Elevation: 515 ft
Nearby Weather Stations
Active Advisory: Flood Warning Active Notice: Record Report

Elev 515 ft 32.77 °N, 96.60 °W | Updated 8 minutes ago

Clear
Clear
48.6 °F
Feels Like 47 °F
N
4.0
Wind Variable Wind from SW
Gusts 8.0 mph

Today
High -- | Low -- °F
--% Chance of Precip.
Yesterday
High -- | Low -- °F
Precip. -- in
Pressure 30.15 in
Visibility 10.0 miles
Clouds Clear
Windchill 47 °F
Dew Point 39 °F
Humidity 70%
Rainfall 0.00 in
Snow Depth Not available.
7:12 AM 6:08 PM
Waxing Crescent, 19% visible
METAR KHQZ 120955Z AUTO 05003KT 10SM CLR 09/03 A3015 RMK AO1 T00880030
Pressure 30.15 in
Visibility 10.0 miles
Clouds Clear
Windchill 47 °F
Dew Point 39 °F
Humidity 70%
Rainfall 0.00 in
Snow Depth Not available.
7:12 AM 6:08 PM
Waxing Crescent, 19% visible
METAR KHQZ 120955Z AUTO 05003KT 10SM CLR 09/03 A3015 RMK AO1 T00880030

10-Day Weather Forecast

Almanac

Astronomy

Feb. 12, 2016 Rise Set
Actual Time
Civil Twilight
Nautical Twilight
Astronomical Twilight
Moon
Length of Visible Light
Length of Day
Tomorrow will be .
, % of the Moon is Illuminated

Today's Extremes

State Highs State Lows

Community

WunderPhotos

Upload Photos

1,892,287 photos uploaded!

WunderBlog® & News

Nearby

Air Quality

  Air Quality AQ Index Pollutant
Not available.

Snow Depth

Station Depth Elevation

Earthquake Activity

City Distance Mag. Time & Date
Minimum magnitude displayed is 2.5.

Coastal Water Temperatures

Place Temperature

Stations

Nearby Weather Stations

Station Location Temp. Windchill Dew Point Humidity Wind Precip. Elev Updated Type
                   

Watches & Warnings

Flood Warning
Issued: 6:35 PM CST Feb. 11, 2016 – National Weather Service

The Flood Warning continues for
the Elm Fork Trinity River near Carrollton.
* At 0615 PM Thursday the stage was 8.33 feet.
* Flood stage is 8 feet.
* Minor flooding is occurring and minor flooding is forecast.
* Forecast... the river will continue near 8.4 feet for the next few
days.


Lat... Lon 3300 9700 3287 9699 3287 9687 3300 9688